Time;durP1;ratioP1;P1;durP2;ratioP2;P2;SDS_P1;SDS_P2;PMS_P1;PMS_P2;Temp;Humidity;BMP_temperature;BMP_pressure;BME280_temperature;BME280_humidity;BME280_pressure;Samples;Min_cycle;Max_cycle;Signal;HPM_P1;HPM_P2
2020/12/29 00:00:40;;;;;;;2.72;1.90;;;;;;;9.41;49.67;93554.91;4209617;28;20064;-80
2020/12/29 00:02:41;;;;;;;2.92;1.27;;;;;;;9.37;49.59;93512.63;4196090;28;20048;-78
2020/12/29 00:04:42;;;;;;;1.25;0.75;;;;;;;9.60;49.00;93532.63;4204368;28;20049;-76
2020/12/29 00:06:48;;;;;;;3.10;1.58;;;;;;;9.75;48.52;93530.00;4201640;28;20274;-78
2020/12/29 00:08:49;;;;;;;3.78;1.90;;;;;;;9.70;48.64;93541.03;4209182;28;20074;-77
2020/12/29 00:10:50;;;;;;;4.45;1.77;;;;;;;9.73;48.58;93552.91;4201646;28;20135;-78
2020/12/29 00:12:51;;;;;;;2.95;1.50;;;;;;;9.64;48.23;93557.44;4194500;28;20114;-77
2020/12/29 00:14:53;;;;;;;2.63;1.20;;;;;;;9.72;48.43;93580.88;4199027;28;20230;-77
2020/12/29 00:16:54;;;;;;;3.15;1.50;;;;;;;9.79;48.51;93612.34;4205158;28;20051;-79
2020/12/29 00:18:55;;;;;;;2.08;1.17;;;;;;;9.80;48.44;93536.28;4210119;28;20048;-78
2020/12/29 00:20:56;;;;;;;2.33;1.27;;;;;;;9.94;48.74;93560.03;4203433;28;20059;-77
2020/12/29 00:22:58;;;;;;;2.17;1.20;;;;;;;9.92;48.72;93554.16;4190827;28;20049;-79
2020/12/29 00:25:00;;;;;;;2.20;1.20;;;;;;;9.97;48.65;93589.22;4196345;28;20078;-79
2020/12/29 00:27:04;;;;;;;4.05;1.30;;;;;;;9.99;48.49;93573.34;4204732;28;20059;-79
2020/12/29 00:29:07;;;;;;;1.42;0.70;;;;;;;10.08;49.08;93572.25;4197403;28;20060;-76
2020/12/29 00:31:10;;;;;;;1.67;0.80;;;;;;;10.15;49.04;93557.44;4201155;28;20147;-77
2020/12/29 00:33:11;;;;;;;3.05;0.68;;;;;;;10.28;48.57;93582.94;4210723;28;20056;-78
2020/12/29 00:35:13;;;;;;;3.00;0.68;;;;;;;10.33;48.90;93557.06;4193623;28;20052;-77
2020/12/29 00:37:14;;;;;;;1.67;0.70;;;;;;;10.36;49.05;93561.13;4207592;28;20052;-79
2020/12/29 00:39:16;;;;;;;1.55;0.68;;;;;;;10.44;48.57;93547.91;4204841;28;20128;-76
2020/12/29 00:41:18;;;;;;;2.40;0.80;;;;;;;10.50;49.05;93560.25;4207704;28;20056;-76
2020/12/29 00:43:19;;;;;;;1.70;0.60;;;;;;;10.49;49.52;93550.78;4207522;28;20055;-79
2020/12/29 00:45:20;;;;;;;1.63;0.60;;;;;;;10.51;48.91;93555.81;4192564;28;20044;-77
2020/12/29 00:47:21;;;;;;;1.83;0.55;;;;;;;10.55;49.25;93534.31;4201622;28;20147;-75
2020/12/29 00:49:22;;;;;;;2.50;0.70;;;;;;;10.54;48.82;93496.06;4198310;28;20680;-78
2020/12/29 00:51:24;;;;;;;4.65;0.90;;;;;;;10.54;49.60;93509.13;4206401;28;20379;-69
2020/12/29 00:53:27;;;;;;;2.08;0.50;;;;;;;10.51;49.05;93527.03;4208059;28;20491;-69
2020/12/29 00:55:29;;;;;;;9.75;0.80;;;;;;;10.52;49.38;93498.03;4208492;28;20040;-69
2020/12/29 00:57:30;;;;;;;1.02;0.70;;;;;;;10.55;48.87;93454.94;4190234;28;20283;-69
2020/12/29 00:59:32;;;;;;;3.13;0.70;;;;;;;10.51;49.80;93448.47;4206937;28;20059;-69
2020/12/29 01:01:33;;;;;;;6.82;1.33;;;;;;;10.53;49.65;93425.53;4209864;28;20055;-72
2020/12/29 01:03:34;;;;;;;1.38;0.75;;;;;;;10.55;49.49;93445.28;4205880;28;20535;-69
2020/12/29 01:05:35;;;;;;;4.45;0.80;;;;;;;10.54;49.20;93438.44;4194306;28;20287;-69
2020/12/29 01:07:37;;;;;;;0.88;0.43;;;;;;;10.52;49.38;93435.19;4208708;28;20515;-70
2020/12/29 01:09:38;;;;;;;8.25;0.73;;;;;;;10.48;49.05;93464.56;4207943;28;20375;-68
2020/12/29 01:11:39;;;;;;;1.70;0.75;;;;;;;10.52;49.44;93466.63;4207764;28;20479;-69
2020/12/29 01:13:41;;;;;;;3.53;0.80;;;;;;;10.53;49.45;93441.25;4193806;28;20414;-69
2020/12/29 01:15:42;;;;;;;3.80;1.05;;;;;;;10.55;49.17;93429.56;4204226;28;20445;-70
2020/12/29 01:17:43;;;;;;;2.35;0.80;;;;;;;10.62;48.91;93435.66;4192962;28;20048;-71
2020/12/29 01:19:44;;;;;;;2.22;0.60;;;;;;;10.59;48.95;93424.78;4200764;28;20412;-72
2020/12/29 01:21:45;;;;;;;2.63;0.75;;;;;;;10.60;48.75;93415.91;4189676;28;20254;-68
2020/12/29 01:23:47;;;;;;;2.00;0.63;;;;;;;10.68;48.45;93431.47;4186048;28;20079;-68
2020/12/29 01:25:48;;;;;;;2.55;0.60;;;;;;;10.65;48.45;93435.28;4186604;28;20415;-69
2020/12/29 01:27:50;;;;;;;1.60;0.70;;;;;;;10.65;48.54;93439.72;4187917;28;20054;-67
2020/12/29 01:29:51;;;;;;;1.08;0.50;;;;;;;10.69;48.11;93467.16;4190990;28;20044;-69
2020/12/29 01:31:52;;;;;;;1.95;0.60;;;;;;;10.69;48.75;93440.13;4191541;28;20597;-69
2020/12/29 01:33:55;;;;;;;3.03;0.57;;;;;;;10.76;48.57;93482.94;4191220;28;20123;-69
2020/12/29 01:35:57;;;;;;;0.87;0.50;;;;;;;10.76;47.97;93501.25;4190641;28;20110;-69
2020/12/29 01:37:58;;;;;;;1.80;0.70;;;;;;;10.74;48.14;93498.03;4190181;28;20059;-69
2020/12/29 01:39:59;;;;;;;1.40;0.60;;;;;;;10.76;48.52;93509.94;4189276;28;20055;-70
2020/12/29 01:42:00;;;;;;;3.05;0.50;;;;;;;10.70;48.15;93509.88;4186906;28;20050;-70
2020/12/29 01:44:15;;;;;;;0.68;0.50;;;;;;;10.72;47.74;93507.88;4185925;28;20070;-69
2020/12/29 01:46:17;;;;;;;1.30;0.50;;;;;;;10.61;48.16;93512.63;4190266;28;20055;-69
2020/12/29 01:48:18;;;;;;;1.17;0.60;;;;;;;10.66;47.91;93541.66;4192281;28;20056;-68
2020/12/29 01:50:21;;;;;;;8.77;0.75;;;;;;;10.62;47.98;93532.56;4190447;28;20052;-68
2020/12/29 01:52:26;;;;;;;0.85;0.40;;;;;;;10.72;47.28;93523.59;4192271;28;20048;-68
2020/12/29 01:54:27;;;;;;;1.88;0.60;;;;;;;10.80;47.13;93520.84;4191777;28;20051;-69
2020/12/29 01:56:32;;;;;;;2.50;0.63;;;;;;;10.79;47.21;93520.00;4187379;28;20048;-68
2020/12/29 01:58:36;;;;;;;2.20;0.73;;;;;;;10.81;47.53;93485.78;4191022;28;20052;-69
2020/12/29 02:00:37;;;;;;;1.75;0.60;;;;;;;10.80;47.46;93495.44;4191134;28;20110;-69
2020/12/29 02:02:39;;;;;;;3.05;0.70;;;;;;;10.78;47.35;93494.84;4192444;28;20068;-68
2020/12/29 02:04:41;;;;;;;1.67;0.52;;;;;;;10.79;46.88;93464.19;4189044;28;20130;-69
2020/12/29 02:06:42;;;;;;;1.35;0.57;;;;;;;10.84;46.88;93503.72;4191791;28;20709;-69
2020/12/29 02:08:44;;;;;;;3.03;0.50;;;;;;;10.86;46.73;93493.88;4194227;28;20268;-69
2020/12/29 02:10:46;;;;;;;1.63;0.70;;;;;;;10.91;47.38;93496.75;4210180;28;20051;-70
2020/12/29 02:12:47;;;;;;;1.75;0.70;;;;;;;10.92;46.64;93474.75;4193173;28;20059;-71
2020/12/29 02:14:48;;;;;;;1.48;0.50;;;;;;;10.89;46.98;93490.06;4193086;28;20159;-69
2020/12/29 02:16:49;;;;;;;3.95;0.80;;;;;;;10.88;46.81;93509.41;4193677;28;20058;-68
2020/12/29 02:18:51;;;;;;;10.68;1.20;;;;;;;10.84;46.96;93488.84;4194210;28;20078;-69
2020/12/29 02:20:52;;;;;;;6.18;0.98;;;;;;;10.84;47.09;93480.16;4189233;28;20048;-68
2020/12/29 02:22:53;;;;;;;1.65;0.50;;;;;;;10.82;46.87;93469.06;4191142;28;20049;-69
2020/12/29 02:24:59;;;;;;;8.32;1.15;;;;;;;10.90;46.64;93468.09;4191180;28;20044;-70
2020/12/29 02:27:04;;;;;;;1.88;0.52;;;;;;;10.93;46.49;93465.13;4187811;28;20040;-70
2020/12/29 02:29:06;;;;;;;6.38;0.60;;;;;;;10.94;46.38;93485.88;4191167;28;20091;-68
2020/12/29 02:31:07;;;;;;;2.10;0.77;;;;;;;10.92;46.47;93497.53;4188077;28;20057;-69
2020/12/29 02:33:08;;;;;;;3.85;0.70;;;;;;;10.92;46.75;93464.28;4187917;28;20049;-68
2020/12/29 02:35:11;;;;;;;1.83;0.70;;;;;;;10.96;46.56;93535.47;4193648;28;20044;-69
2020/12/29 02:37:13;;;;;;;2.10;0.63;;;;;;;10.91;46.73;93454.81;4191701;28;20489;-69
2020/12/29 02:39:15;;;;;;;1.02;0.50;;;;;;;10.93;46.48;93468.53;4208832;28;20419;-69
2020/12/29 02:41:17;;;;;;;1.95;0.52;;;;;;;10.93;46.45;93476.41;4192982;28;20143;-69
2020/12/29 02:43:18;;;;;;;1.42;0.60;;;;;;;10.86;46.45;93494.69;4192599;28;20060;-68
2020/12/29 02:45:20;;;;;;;1.70;0.65;;;;;;;10.90;46.16;93496.94;4194626;28;20151;-70
2020/12/29 02:47:21;;;;;;;2.25;0.60;;;;;;;10.87;46.12;93453.59;4192457;28;20059;-69
2020/12/29 02:49:22;;;;;;;2.50;0.50;;;;;;;10.95;45.86;93490.13;4189531;28;20052;-69
2020/12/29 02:51:23;;;;;;;2.53;0.75;;;;;;;10.95;45.90;93481.44;4207726;28;20052;-69
2020/12/29 02:53:24;;;;;;;4.43;0.80;;;;;;;11.01;44.89;93462.31;4193966;28;20044;-69
2020/12/29 02:55:26;;;;;;;1.95;0.60;;;;;;;11.03;45.19;93487.38;4194143;28;20064;-69
2020/12/29 02:57:27;;;;;;;2.45;0.70;;;;;;;11.04;45.19;93467.19;4193124;28;20598;-69
2020/12/29 02:59:30;;;;;;;1.58;0.50;;;;;;;11.02;45.11;93475.25;4194125;28;20056;-68
2020/12/29 03:01:31;;;;;;;3.38;0.63;;;;;;;11.02;44.86;93511.94;4193780;28;20415;-69
2020/12/29 03:03:33;;;;;;;5.60;0.73;;;;;;;11.07;45.07;93529.72;4194301;28;20144;-72
2020/12/29 03:05:34;;;;;;;3.08;0.70;;;;;;;11.11;45.19;93538.00;4189809;28;20077;-67
2020/12/29 03:07:35;;;;;;;6.88;0.60;;;;;;;11.08;45.37;93539.19;4191693;28;20048;-69
2020/12/29 03:09:36;;;;;;;1.55;0.57;;;;;;;11.15;45.61;93568.09;4193597;28;20147;-70
2020/12/29 03:11:38;;;;;;;1.35;0.40;;;;;;;11.05;45.39;93550.06;4187643;28;20132;-69
2020/12/29 03:13:39;;;;;;;1.60;0.70;;;;;;;11.05;45.14;93560.53;4176026;28;20059;-70
2020/12/29 03:15:41;;;;;;;1.23;0.60;;;;;;;11.04;45.28;93590.38;4191749;28;20181;-68
2020/12/29 03:17:42;;;;;;;2.60;0.50;;;;;;;11.04;45.44;93575.47;4193281;28;20529;-69
2020/12/29 03:19:43;;;;;;;3.38;1.02;;;;;;;11.07;45.05;93585.53;4190077;28;20044;-69
2020/12/29 03:21:44;;;;;;;3.28;0.70;;;;;;;11.05;45.53;93598.03;4191978;28;20376;-68
2020/12/29 03:23:49;;;;;;;2.75;0.65;;;;;;;11.07;45.39;93624.84;4192764;28;20059;-70
2020/12/29 03:25:50;;;;;;;4.18;0.50;;;;;;;11.03;45.85;93610.53;4190702;28;20048;-68
2020/12/29 03:27:51;;;;;;;2.75;0.50;;;;;;;11.01;45.09;93591.56;4189753;28;20440;-69
2020/12/29 03:29:52;;;;;;;2.85;0.98;;;;;;;11.06;45.13;93599.66;4192485;28;20053;-69
2020/12/29 03:31:54;;;;;;;2.13;0.55;;;;;;;11.09;45.05;93587.19;4175793;28;20053;-70
2020/12/29 03:33:55;;;;;;;1.55;0.50;;;;;;;11.06;44.94;93575.28;4193624;28;20071;-68
2020/12/29 03:35:56;;;;;;;2.17;0.80;;;;;;;11.15;45.00;93591.66;4192158;28;20058;-69
2020/12/29 03:37:57;;;;;;;1.50;0.60;;;;;;;11.07;44.99;93580.31;4191226;28;20055;-70
2020/12/29 03:39:58;;;;;;;3.83;0.50;;;;;;;11.15;44.48;93552.34;4193521;28;20045;-69
2020/12/29 03:42:00;;;;;;;2.63;0.68;;;;;;;11.14;44.56;93588.25;4188321;28;20063;-70
2020/12/29 03:44:02;;;;;;;1.67;0.55;;;;;;;11.20;43.76;93563.88;4188832;28;20285;-68
2020/12/29 03:46:03;;;;;;;0.90;0.52;;;;;;;11.19;43.95;93585.06;4188686;28;20048;-69
2020/12/29 03:48:04;;;;;;;1.02;0.50;;;;;;;11.21;43.71;93576.00;4192114;28;20132;-69
2020/12/29 03:50:05;;;;;;;2.30;0.70;;;;;;;11.23;43.82;93589.72;4190541;28;20080;-69
2020/12/29 03:52:07;;;;;;;1.13;0.50;;;;;;;11.24;42.89;93595.75;4192078;28;20056;-68
2020/12/29 03:54:08;;;;;;;3.90;1.00;;;;;;;11.25;42.92;93584.28;4192196;28;20052;-68
2020/12/29 03:56:09;;;;;;;1.25;0.50;;;;;;;11.36;42.87;93581.16;4191228;28;20071;-72
2020/12/29 03:58:11;;;;;;;3.28;0.52;;;;;;;11.38;43.07;93615.03;4192552;28;20144;-70
2020/12/29 04:00:12;;;;;;;4.43;0.65;;;;;;;11.36;42.47;93589.00;4191412;28;20067;-70
2020/12/29 04:02:13;;;;;;;1.92;0.50;;;;;;;11.38;42.34;93589.63;4192507;28;20040;-69
2020/12/29 04:04:14;;;;;;;3.33;0.60;;;;;;;11.45;42.15;93610.66;4190990;28;20048;-69
2020/12/29 04:06:15;;;;;;;0.95;0.32;;;;;;;11.48;41.57;93576.16;4189901;28;20057;-70
2020/12/29 04:08:17;;;;;;;1.83;0.57;;;;;;;11.50;42.14;93579.41;4191275;28;20075;-69
2020/12/29 04:10:18;;;;;;;2.53;0.43;;;;;;;11.57;41.83;93596.03;4192674;28;20048;-70
2020/12/29 04:12:19;;;;;;;2.70;0.63;;;;;;;11.54;42.11;93591.13;4192157;28;20061;-69
2020/12/29 04:14:20;;;;;;;0.80;0.43;;;;;;;11.52;41.59;93592.34;4193192;28;20049;-70
2020/12/29 04:16:22;;;;;;;1.02;0.50;;;;;;;11.51;41.52;93583.66;4192419;28;20068;-69
2020/12/29 04:18:23;;;;;;;3.13;0.57;;;;;;;11.54;41.94;93582.47;4206274;28;20048;-68
2020/12/29 04:20:24;;;;;;;1.70;0.55;;;;;;;11.59;41.32;93590.56;4193686;28;20060;-69
2020/12/29 04:22:32;;;;;;;2.08;0.77;;;;;;;11.58;41.43;93612.56;4187983;28;20064;-69
2020/12/29 04:24:33;;;;;;;3.67;0.60;;;;;;;11.54;41.74;93603.44;4191133;28;20059;-70
2020/12/29 04:26:34;;;;;;;2.05;0.77;;;;;;;11.55;41.64;93581.44;4191275;28;20048;-70
2020/12/29 04:28:36;;;;;;;2.08;0.70;;;;;;;11.57;41.76;93566.34;4188797;28;20384;-70
2020/12/29 04:30:37;;;;;;;4.55;0.77;;;;;;;11.58;41.83;93592.38;4192107;28;20052;-68
2020/12/29 04:32:38;;;;;;;3.03;0.50;;;;;;;11.61;41.99;93584.13;4190241;28;20052;-70
2020/12/29 04:34:39;;;;;;;1.92;0.50;;;;;;;11.55;41.98;93586.69;4192677;28;20127;-69
2020/12/29 04:36:41;;;;;;;1.17;0.40;;;;;;;11.57;42.03;93584.69;4190840;28;20060;-69
2020/12/29 04:38:42;;;;;;;3.05;0.85;;;;;;;11.54;42.07;93577.22;4191993;28;20094;-69
2020/12/29 04:40:44;;;;;;;2.25;0.50;;;;;;;11.54;42.12;93582.47;4190228;28;20144;-69
2020/12/29 04:42:46;;;;;;;3.15;0.63;;;;;;;11.51;42.25;93565.31;4190634;28;20048;-69
2020/12/29 04:44:47;;;;;;;3.20;0.40;;;;;;;11.53;42.45;93568.56;4188292;28;20060;-70
2020/12/29 04:46:49;;;;;;;2.00;0.40;;;;;;;11.52;41.98;93601.00;4191872;28;20044;-67
2020/12/29 04:48:50;;;;;;;3.67;0.63;;;;;;;11.58;42.13;93586.34;4191703;28;20048;-70
2020/12/29 04:50:52;;;;;;;3.00;0.68;;;;;;;11.51;42.45;93602.03;4180925;28;20048;-69
2020/12/29 04:52:57;;;;;;;2.55;0.60;;;;;;;11.53;42.37;93586.06;4190015;28;20127;-69
2020/12/29 04:55:00;;;;;;;3.25;0.55;;;;;;;11.52;42.48;93592.34;4192086;28;20056;-68
2020/12/29 04:57:02;;;;;;;1.75;0.50;;;;;;;11.54;42.82;93608.69;4173569;28;20133;-70
2020/12/29 04:59:04;;;;;;;1.13;0.57;;;;;;;11.56;42.56;93594.38;4190892;28;20059;-68
2020/12/29 05:01:07;;;;;;;2.63;0.60;;;;;;;11.52;42.56;93634.31;4190134;28;20506;-69
2020/12/29 05:03:09;;;;;;;2.03;0.52;;;;;;;11.51;42.64;93616.94;4178106;28;20056;-68
2020/12/29 05:05:10;;;;;;;1.15;0.70;;;;;;;11.54;42.36;93635.72;4187378;28;20126;-70
2020/12/29 05:07:12;;;;;;;2.78;0.90;;;;;;;11.57;42.75;93650.28;4198416;28;20109;-70
2020/12/29 05:09:13;;;;;;;4.47;0.80;;;;;;;11.61;42.84;93620.03;4187271;28;20131;-69
2020/12/29 05:11:16;;;;;;;3.03;0.70;;;;;;;11.55;42.48;93637.38;4191174;28;20052;-69
2020/12/29 05:13:17;;;;;;;2.72;0.43;;;;;;;11.60;42.18;93655.94;4190291;28;20477;-71
2020/12/29 05:15:20;;;;;;;5.22;0.60;;;;;;;11.60;42.09;93586.94;4190942;28;20142;-69
2020/12/29 05:17:22;;;;;;;1.97;0.40;;;;;;;11.62;42.12;93614.59;4191901;28;20063;-69
2020/12/29 05:19:23;;;;;;;1.15;0.50;;;;;;;11.63;42.47;93625.91;4187888;28;20275;-70
2020/12/29 05:21:25;;;;;;;1.90;0.60;;;;;;;11.60;42.67;93644.66;4190287;28;20052;-77
2020/12/29 05:23:26;;;;;;;3.47;1.77;;;;;;;11.53;43.06;93617.56;4191575;28;20053;-78
2020/12/29 05:25:28;;;;;;;2.55;0.77;;;;;;;11.60;42.94;93624.47;4192019;28;20036;-79
2020/12/29 05:27:30;;;;;;;4.30;1.00;;;;;;;11.63;43.04;93602.28;4186800;28;20052;-77
2020/12/29 05:29:31;;;;;;;5.35;0.55;;;;;;;11.62;42.84;93587.56;4191634;28;20074;-78
2020/12/29 05:31:34;;;;;;;2.67;0.40;;;;;;;11.63;42.83;93595.22;4192085;28;20052;-77
2020/12/29 05:33:35;;;;;;;1.92;0.40;;;;;;;11.58;42.73;93563.53;4186826;28;20138;-79
2020/12/29 05:35:37;;;;;;;2.65;0.50;;;;;;;11.62;42.43;93585.75;4192726;28;20040;-80
2020/12/29 05:37:40;;;;;;;1.00;0.60;;;;;;;11.66;42.63;93596.69;4192618;28;20474;-81
2020/12/29 05:39:41;;;;;;;3.33;0.68;;;;;;;11.65;42.66;93597.66;4192511;28;20128;-79
2020/12/29 05:41:45;;;;;;;0.85;0.40;;;;;;;11.61;43.18;93570.19;4192919;28;20060;-77
2020/12/29 05:44:01;;;;;;;1.67;0.50;;;;;;;11.61;43.35;93620.03;4191228;28;20056;-78
2020/12/29 05:46:07;;;;;;;1.75;0.40;;;;;;;11.56;43.25;93594.38;4180678;28;20435;-78
2020/12/29 05:48:08;;;;;;;2.40;0.57;;;;;;;11.58;43.78;93615.19;4186515;28;20075;-79
2020/12/29 05:50:09;;;;;;;1.55;0.40;;;;;;;11.60;43.33;93602.69;4179091;28;20049;-81
2020/12/29 05:52:12;;;;;;;2.60;0.65;;;;;;;11.64;43.19;93593.44;4176774;28;20143;-77
2020/12/29 05:54:14;;;;;;;0.70;0.50;;;;;;;11.59;43.50;93640.41;4191380;28;20048;-78
2020/12/29 05:56:16;;;;;;;2.80;0.70;;;;;;;11.61;43.17;93567.56;4181610;28;20048;-79
2020/12/29 05:58:18;;;;;;;1.98;0.75;;;;;;;11.61;43.33;93615.59;4191570;28;20156;-82
2020/12/29 06:00:25;;;;;;;2.10;0.50;;;;;;;11.63;43.65;93607.53;4193301;28;20390;-78
2020/12/29 06:02:26;;;;;;;2.55;0.50;;;;;;;11.62;43.42;93629.53;4191874;28;20049;-78
2020/12/29 06:04:30;;;;;;;2.42;0.47;;;;;;;11.61;43.93;93601.66;4191965;28;20341;-79
2020/12/29 06:06:33;;;;;;;4.13;0.90;;;;;;;11.58;43.51;93604.69;4177918;28;20045;-79
2020/12/29 06:08:37;;;;;;;1.23;0.60;;;;;;;11.64;43.81;93619.66;4185346;28;20102;-80
2020/12/29 06:10:42;;;;;;;2.13;0.60;;;;;;;11.68;43.69;93620.91;4175953;28;20165;-80
2020/12/29 06:12:50;;;;;;;2.28;0.73;;;;;;;11.73;43.72;93610.63;4174392;28;20144;-79
2020/12/29 06:14:57;;;;;;;2.20;0.60;;;;;;;11.74;43.66;93608.81;4191789;28;20056;-80
2020/12/29 06:16:58;;;;;;;2.53;0.60;;;;;;;11.73;43.85;93622.94;4193127;28;20118;-80
2020/12/29 06:19:02;;;;;;;1.98;0.70;;;;;;;11.70;43.66;93637.25;4193789;28;20075;-79
2020/12/29 06:21:05;;;;;;;8.75;0.82;;;;;;;11.64;44.12;93565.38;4185052;28;20045;-67
2020/12/29 06:23:17;;;;;;;1.10;0.60;;;;;;;11.66;44.16;93630.78;4191706;28;20399;-71
2020/12/29 06:25:19;;;;;;;4.72;0.50;;;;;;;11.76;43.58;93641.72;4189814;28;20403;-69
2020/12/29 06:27:22;;;;;;;3.05;0.65;;;;;;;11.85;43.99;93655.50;4189979;28;20510;-69
2020/12/29 06:29:39;;;;;;;1.92;0.75;;;;;;;11.86;43.38;93620.41;4205525;28;20044;-68
2020/12/29 06:31:40;;;;;;;2.53;1.10;;;;;;;11.97;43.30;93646.13;4190334;28;20095;-69
2020/12/29 06:33:43;;;;;;;3.05;0.60;;;;;;;12.03;42.87;93613.06;4191487;28;20424;-69
2020/12/29 06:35:45;;;;;;;2.17;0.43;;;;;;;12.23;42.73;93642.81;4187890;28;20049;-70
2020/12/29 06:38:17;;;;;;;2.88;0.70;;;;;;;12.28;42.44;93660.63;4191267;28;20431;-77
2020/12/29 06:40:20;;;;;;;8.10;0.93;;;;;;;12.32;42.15;93653.97;4197043;28;20127;-77
2020/12/29 06:42:21;;;;;;;2.40;0.60;;;;;;;12.31;42.01;93628.72;4193748;28;20102;-69
2020/12/29 06:44:22;;;;;;;3.80;1.33;;;;;;;12.33;42.02;93631.97;4169739;28;20065;-70
2020/12/29 06:46:27;;;;;;;3.42;0.80;;;;;;;12.38;42.16;93674.22;4194322;28;20044;-79
2020/12/29 06:48:29;;;;;;;2.15;0.73;;;;;;;12.38;42.41;93661.06;4186748;28;20061;-79
2020/12/29 06:50:32;;;;;;;0.70;0.43;;;;;;;12.25;42.76;93677.56;4191559;28;20053;-80
2020/12/29 06:52:33;;;;;;;1.67;0.68;;;;;;;12.23;42.58;93653.34;4208031;28;20078;-79
2020/12/29 06:54:48;;;;;;;3.45;0.70;;;;;;;12.28;42.48;93666.72;4194607;28;20056;-80
2020/12/29 06:57:09;;;;;;;1.42;0.50;;;;;;;12.23;42.73;93653.34;4191404;28;20190;-81
2020/12/29 06:59:16;;;;;;;2.03;0.50;;;;;;;12.30;42.97;93663.88;4195651;28;20125;-80
2020/12/29 07:01:27;;;;;;;3.10;0.52;;;;;;;12.27;42.78;93661.63;4197270;28;20406;-80
2020/12/29 07:03:32;;;;;;;1.92;0.60;;;;;;;12.26;43.07;93662.63;4194588;28;20044;-79
2020/12/29 07:05:37;;;;;;;2.25;0.82;;;;;;;12.25;42.85;93690.72;4198856;28;20048;-77
2020/12/29 07:07:45;;;;;;;1.88;0.70;;;;;;;12.26;42.48;93673.13;4197815;28;20052;-78
2020/12/29 07:09:46;;;;;;;8.55;1.00;;;;;;;12.36;42.63;93678.84;4195994;28;20474;-79
2020/12/29 07:12:07;;;;;;;1.00;0.40;;;;;;;12.33;42.76;93662.69;4192634;28;20049;-77
2020/12/29 07:14:08;;;;;;;7.25;0.75;;;;;;;12.36;42.95;93684.09;4191347;28;20113;-81
2020/12/29 07:16:13;;;;;;;3.20;0.73;;;;;;;12.28;43.04;93653.56;4178431;28;20056;-79
2020/12/29 07:18:22;;;;;;;11.57;0.75;;;;;;;12.29;43.45;93678.81;4194154;28;20465;-78
2020/12/29 07:20:24;;;;;;;3.35;0.57;;;;;;;12.35;43.43;93672.00;4193785;28;20467;-81
2020/12/29 07:22:26;;;;;;;2.03;0.60;;;;;;;12.40;42.58;93672.19;4196576;28;20056;-78
2020/12/29 07:24:28;;;;;;;5.38;0.95;;;;;;;12.41;43.14;93673.00;4193849;28;20060;-79
2020/12/29 07:26:29;;;;;;;2.33;0.50;;;;;;;12.49;43.37;93709.63;4199018;28;20044;-79
2020/12/29 07:28:31;;;;;;;1.17;0.50;;;;;;;12.42;43.14;93675.44;4196226;28;20048;-81
2020/12/29 07:30:34;;;;;;;2.10;0.93;;;;;;;12.46;43.27;93715.28;4193037;28;20048;-80
2020/12/29 07:32:35;;;;;;;1.63;0.53;;;;;;;12.53;43.15;93689.84;4193349;28;20055;-82
2020/12/29 07:34:39;;;;;;;3.05;1.00;;;;;;;12.57;43.24;93719.97;4193316;28;20696;-80
2020/12/29 07:36:44;;;;;;;;;;;;;;;12.52;43.23;93746.03;4201436;28;20674;-79
2020/12/29 07:38:47;;;;;;;3.28;0.80;;;;;;;12.55;42.98;93724.59;4189111;28;19942;-79
2020/12/29 07:40:49;;;;;;;2.45;0.70;;;;;;;12.53;43.60;93731.06;4192862;28;20593;-78
2020/12/29 07:42:50;;;;;;;1.73;0.50;;;;;;;12.60;43.49;93735.34;4192091;28;20056;-80
2020/12/29 07:44:52;;;;;;;3.85;1.00;;;;;;;12.61;42.95;93751.94;4193069;28;20497;-80
2020/12/29 07:46:53;;;;;;;1.85;0.70;;;;;;;12.65;42.83;93740.84;4191013;28;20439;-79
2020/12/29 07:48:54;;;;;;;2.08;0.70;;;;;;;12.69;42.87;93739.44;4187842;28;20056;-80
2020/12/29 07:50:59;;;;;;;1.02;0.55;;;;;;;12.58;43.46;93745.22;4193902;28;20059;-79
2020/12/29 07:53:11;;;;;;;1.67;0.70;;;;;;;12.64;42.91;93780.44;4189478;28;20377;-80
2020/12/29 07:55:15;;;;;;;2.88;0.60;;;;;;;12.66;43.24;93731.94;4193669;28;20052;-78
2020/12/29 07:57:16;;;;;;;2.85;0.80;;;;;;;12.76;42.60;93747.34;4191938;28;20325;-79
2020/12/29 07:59:18;;;;;;;3.72;0.80;;;;;;;12.82;42.57;93766.75;4159348;28;20041;-81
2020/12/29 08:01:19;;;;;;;2.33;0.60;;;;;;;12.84;42.13;93764.75;4191894;28;20434;-77
2020/12/29 08:03:20;;;;;;;2.13;0.60;;;;;;;12.82;42.73;93748.38;4192203;28;20056;-80
2020/12/29 08:05:23;;;;;;;0.88;0.38;;;;;;;12.88;42.18;93760.72;4193921;28;20831;-80
2020/12/29 08:07:24;;;;;;;1.50;0.47;;;;;;;12.96;42.36;93780.78;4192395;28;20053;-79
2020/12/29 08:09:45;;;;;;;1.58;0.85;;;;;;;12.98;41.95;93768.25;4192699;28;20054;-80
2020/12/29 08:11:47;;;;;;;1.73;0.75;;;;;;;13.03;42.19;93785.06;4207428;28;20151;-81
2020/12/29 08:13:49;;;;;;;2.22;0.90;;;;;;;13.09;41.80;93763.22;4192467;28;20135;-79
2020/12/29 08:15:50;;;;;;;2.63;0.75;;;;;;;13.01;40.85;93747.63;4191991;28;20473;-79
2020/12/29 08:18:11;;;;;;;1.35;0.70;;;;;;;13.11;40.87;93763.84;4190291;28;20215;-79
2020/12/29 08:20:12;;;;;;;4.57;0.90;;;;;;;13.04;42.15;93762.22;4192329;28;20051;-78
2020/12/29 08:22:14;;;;;;;1.88;0.50;;;;;;;13.07;41.99;93744.22;4191827;28;20058;-80
2020/12/29 08:24:20;;;;;;;4.30;0.80;;;;;;;13.17;41.80;93778.03;4184066;28;20052;-79
2020/12/29 08:26:21;;;;;;;4.68;0.73;;;;;;;13.23;41.78;93782.50;4186731;28;20305;-78
2020/12/29 08:28:24;;;;;;;4.35;0.85;;;;;;;13.23;41.44;93761.47;4189463;28;20126;-78
2020/12/29 08:30:26;;;;;;;2.50;0.60;;;;;;;13.28;41.42;93772.22;4193523;28;20049;-80
2020/12/29 08:32:28;;;;;;;2.75;0.70;;;;;;;13.35;41.46;93764.34;4184474;28;20442;-80
2020/12/29 08:34:29;;;;;;;2.28;0.80;;;;;;;13.28;41.83;93766.97;4190668;28;20529;-79
2020/12/29 08:36:31;;;;;;;2.95;0.70;;;;;;;13.38;41.77;93792.06;4191436;28;20047;-77
2020/12/29 08:38:41;;;;;;;3.80;0.70;;;;;;;13.43;41.06;93795.75;4176044;28;20091;-78
2020/12/29 08:40:50;;;;;;;2.15;1.00;;;;;;;13.42;41.47;93786.25;4182712;28;20052;-69
2020/12/29 08:42:52;;;;;;;2.40;0.50;;;;;;;13.53;41.67;93776.97;4190217;28;20056;-70
2020/12/29 08:44:56;;;;;;;2.30;0.85;;;;;;;13.50;41.11;93751.84;4184501;28;20152;-70
2020/12/29 08:46:57;;;;;;;;;;;;;;;13.47;41.17;93790.91;4167549;28;20555;-69
2020/12/29 08:49:05;;;;;;;3.75;0.90;;;;;;;13.51;41.91;93776.34;4194696;28;19943;-69
2020/12/29 08:51:18;;;;;;;3.83;0.90;;;;;;;13.50;41.83;93822.06;4190106;28;20063;-68
2020/12/29 08:53:23;;;;;;;2.65;0.60;;;;;;;13.45;41.10;93780.56;4191927;28;20066;-70
2020/12/29 08:55:26;;;;;;;4.25;0.80;;;;;;;13.38;41.61;93782.38;4190469;28;20108;-69
2020/12/29 08:57:28;;;;;;;4.17;0.70;;;;;;;13.38;41.82;93795.53;4191520;28;20052;-68
2020/12/29 08:59:37;;;;;;;3.90;0.65;;;;;;;13.42;41.82;93806.47;4176130;28;20287;-70
2020/12/29 09:01:40;;;;;;;2.67;0.73;;;;;;;13.49;41.50;93820.47;4187552;28;20045;-69
2020/12/29 09:03:41;;;;;;;2.40;0.70;;;;;;;13.65;41.19;93827.97;4183473;28;20048;-70
2020/12/29 09:05:57;;;;;;;2.75;0.65;;;;;;;13.63;41.38;93808.13;4190922;28;20213;-69
2020/12/29 09:07:59;;;;;;;3.72;1.00;;;;;;;13.71;41.57;93829.81;4189673;28;20071;-70
2020/12/29 09:10:03;;;;;;;2.88;0.82;;;;;;;13.68;41.62;93822.34;4190335;28;20048;-70
2020/12/29 09:12:07;;;;;;;3.33;0.70;;;;;;;13.84;41.39;93799.28;4189059;28;20314;-70
2020/12/29 09:14:08;;;;;;;3.50;0.80;;;;;;;13.82;41.17;93815.25;4190889;28;20419;-71
2020/12/29 09:16:13;;;;;;;1.50;0.60;;;;;;;13.71;41.86;93821.91;4189709;28;20562;-68
2020/12/29 09:18:14;;;;;;;2.50;0.95;;;;;;;13.67;42.08;93819.88;4192000;28;20414;-71
2020/12/29 09:20:25;;;;;;;2.25;0.70;;;;;;;13.73;41.98;93812.00;4192265;28;20494;-69
2020/12/29 09:22:26;;;;;;;3.28;0.82;;;;;;;13.82;41.87;93807.34;4189127;28;20059;-68
2020/12/29 09:24:32;;;;;;;3.92;0.63;;;;;;;13.81;41.76;93812.81;4189245;28;20183;-70
2020/12/29 09:26:47;;;;;;;3.22;0.80;;;;;;;13.76;41.88;93837.09;4188468;28;20122;-71
2020/12/29 09:28:48;;;;;;;3.03;0.80;;;;;;;13.71;42.44;93802.69;4187073;28;20075;-68
2020/12/29 09:30:58;;;;;;;3.08;0.60;;;;;;;13.83;41.98;93818.69;4191863;28;20075;-69
2020/12/29 09:32:59;;;;;;;10.80;1.23;;;;;;;13.98;41.17;93797.44;4190262;28;20052;-69
2020/12/29 09:35:24;;;;;;;3.00;0.80;;;;;;;13.97;41.51;93817.72;4191319;28;20880;-69
2020/12/29 09:37:21;;;;;;;4.28;0.90;;;;;;;13.93;41.54;93816.47;4186219;28;20048;-68
2020/12/29 09:39:22;;;;;;;2.55;0.90;;;;;;;13.98;40.92;93813.25;4189630;28;20056;-70